createdAt,value
2016-09-03T00:00:41.598Z,18.44
2016-09-03T00:01:41.751Z,18.41
2016-09-03T00:02:41.642Z,18.32
2016-09-03T00:03:41.597Z,18.29
2016-09-03T00:04:41.660Z,18.34
2016-09-03T00:05:41.690Z,18.42
2016-09-03T00:06:41.747Z,18.27
2016-09-03T00:07:41.589Z,18.36
2016-09-03T00:08:41.760Z,18.32
2016-09-03T00:09:41.690Z,18.35
2016-09-03T00:10:41.594Z,18.31
2016-09-03T00:11:41.685Z,18.32
2016-09-03T00:12:41.696Z,18.27
2016-09-03T00:13:41.673Z,18.32
2016-09-03T00:14:41.683Z,18.24
2016-09-03T00:15:41.762Z,18.31
2016-09-03T00:16:41.694Z,18.31
2016-09-03T00:17:41.761Z,18.29
2016-09-03T00:18:41.691Z,18.24
2016-09-03T00:19:41.672Z,18.31
2016-09-03T00:20:41.778Z,18.2
2016-09-03T00:21:41.701Z,18.21
2016-09-03T00:22:41.705Z,18.19
2016-09-03T00:23:41.619Z,18.29
2016-09-03T00:24:41.638Z,18.27
2016-09-03T00:25:41.700Z,18.26
2016-09-03T00:26:41.716Z,18.23
2016-09-03T00:27:41.712Z,18.2
2016-09-03T00:28:41.626Z,18.17
2016-09-03T00:29:41.717Z,18.16
2016-09-03T00:30:41.651Z,18.24
2016-09-03T00:31:41.908Z,18.2
2016-09-03T00:32:41.797Z,18.16
2016-09-03T00:33:41.717Z,18.19
2016-09-03T00:34:41.745Z,18.19
2016-09-03T00:35:41.795Z,18.19
2016-09-03T00:36:41.818Z,18.19
2016-09-03T00:37:41.663Z,18.23
2016-09-03T00:38:41.719Z,18.17
2016-09-03T00:39:41.733Z,18.14
2016-09-03T00:40:41.738Z,18.08
2016-09-03T00:41:41.653Z,18.19
2016-09-03T00:42:41.645Z,18.23
2016-09-03T00:43:41.724Z,18.19
2016-09-03T00:44:41.655Z,18.16
2016-09-03T00:45:41.728Z,18.14
2016-09-03T00:46:41.656Z,18.16
2016-09-03T00:47:41.724Z,18.23
2016-09-03T00:48:41.658Z,18.17
2016-09-03T00:49:41.654Z,18.13
2016-09-03T00:50:41.815Z,18.14
2016-09-03T00:51:41.741Z,18.1
2016-09-03T00:52:41.824Z,18.13
2016-09-03T00:53:41.678Z,18.03
2016-09-03T00:54:41.730Z,18.03
2016-09-03T00:55:41.823Z,18.06
2016-09-03T00:56:41.765Z,18.08
2016-09-03T00:57:41.744Z,18.06
2016-09-03T00:58:41.691Z,18.08
2016-09-03T00:59:41.752Z,18.05
2016-09-03T01:00:41.669Z,18.1
2016-09-03T01:01:41.747Z,17.99
2016-09-03T01:02:41.758Z,18.02
2016-09-03T01:03:41.833Z,18.06
2016-09-03T01:04:41.841Z,18.06
2016-09-03T01:05:41.764Z,18.08
2016-09-03T01:06:41.762Z,18.03
2016-09-03T01:07:41.684Z,18.11
2016-09-03T01:08:41.862Z,18.11
2016-09-03T01:09:41.760Z,18.13
2016-09-03T01:10:41.866Z,18.16
2016-09-03T01:11:41.753Z,18.08
2016-09-03T01:12:41.774Z,18.17
2016-09-03T01:13:41.848Z,18.14
2016-09-03T01:14:41.841Z,18.08
2016-09-03T01:15:41.713Z,18.1
2016-09-03T01:16:41.785Z,18.05
2016-09-03T01:17:41.698Z,18.1
2016-09-03T01:18:41.694Z,17.98
2016-09-03T01:19:41.702Z,18.01
2016-09-03T01:20:41.868Z,17.96
2016-09-03T01:21:41.831Z,17.99
2016-09-03T01:22:41.884Z,17.98
2016-09-03T01:23:41.874Z,17.88
2016-09-03T01:24:41.869Z,17.92
2016-09-03T01:25:41.863Z,17.95
2016-09-03T01:26:41.711Z,17.87
2016-09-03T01:27:41.849Z,17.81
2016-09-03T01:28:41.863Z,17.83
2016-09-03T01:29:41.792Z,17.87
2016-09-03T01:30:41.718Z,17.81
2016-09-03T01:31:41.864Z,17.83
2016-09-03T01:32:41.707Z,17.74
2016-09-03T01:33:41.701Z,17.71
2016-09-03T01:34:41.717Z,17.79
2016-09-03T01:35:41.848Z,17.71
2016-09-03T01:36:41.870Z,17.84
2016-09-03T01:37:41.882Z,17.76
2016-09-03T01:38:41.874Z,17.63
2016-09-03T01:39:41.806Z,17.81
2016-09-03T01:40:41.902Z,17.58
2016-09-03T01:41:41.886Z,17.63
2016-09-03T01:42:41.895Z,17.73
2016-09-03T01:43:41.842Z,17.69
2016-09-03T01:44:41.879Z,17.63
2016-09-03T01:45:41.885Z,17.6
2016-09-03T01:46:41.741Z,17.69
2016-09-03T01:47:41.746Z,17.62
2016-09-03T01:48:41.817Z,17.66
2016-09-03T01:49:41.815Z,17.58
2016-09-03T01:50:41.839Z,17.6
2016-09-03T01:51:41.752Z,17.54
2016-09-03T01:52:41.826Z,17.55
2016-09-03T01:53:41.914Z,17.5
2016-09-03T01:54:41.819Z,17.55
2016-09-03T01:55:41.885Z,17.62
2016-09-03T01:56:41.833Z,17.5
2016-09-03T01:57:41.926Z,17.6
2016-09-03T01:58:41.759Z,17.62
2016-09-03T01:59:41.849Z,17.6
2016-09-03T02:00:41.831Z,17.49
2016-09-03T02:01:41.910Z,17.55
2016-09-03T02:02:41.766Z,17.55
2016-09-03T02:03:41.859Z,17.46
2016-09-03T02:04:41.831Z,17.49
2016-09-03T02:05:41.830Z,17.52
2016-09-03T02:06:41.823Z,17.57
2016-09-03T02:07:41.922Z,17.52
2016-09-03T02:08:41.833Z,17.47
2016-09-03T02:09:41.858Z,17.43
2016-09-03T02:10:41.759Z,17.39
2016-09-03T02:11:41.779Z,17.4
2016-09-03T02:12:41.946Z,17.46
2016-09-03T02:13:41.771Z,17.43
2016-09-03T02:14:41.950Z,17.43
2016-09-03T02:15:41.775Z,17.47
2016-09-03T02:16:41.860Z,17.45
2016-09-03T02:17:41.928Z,17.4
2016-09-03T02:18:41.938Z,17.45
2016-09-03T02:19:41.958Z,17.36
2016-09-03T02:20:41.772Z,17.42
2016-09-03T02:21:41.867Z,17.36
2016-09-03T02:22:41.784Z,17.43
2016-09-03T02:23:41.781Z,17.46
2016-09-03T02:24:41.871Z,17.39
2016-09-03T02:25:41.786Z,17.38
2016-09-03T02:26:41.881Z,17.4
2016-09-03T02:27:41.876Z,17.46
2016-09-03T02:28:41.882Z,17.39
2016-09-03T02:29:41.952Z,17.38
2016-09-03T02:30:41.886Z,17.36
2016-09-03T02:31:41.881Z,17.43
2016-09-03T02:32:41.953Z,17.39
2016-09-03T02:33:41.955Z,17.36
2016-09-03T02:34:41.951Z,17.36
2016-09-03T02:35:41.816Z,17.3
2016-09-03T02:36:41.880Z,17.36
2016-09-03T02:37:41.867Z,17.36
2016-09-03T02:38:41.878Z,17.31
2016-09-03T02:39:41.880Z,17.31
2016-09-03T02:40:41.873Z,17.27
2016-09-03T02:41:42.006Z,17.36
2016-09-03T02:42:41.966Z,17.35
2016-09-03T02:43:41.889Z,17.27
2016-09-03T02:44:41.893Z,17.28
2016-09-03T02:45:41.815Z,17.32
2016-09-03T02:46:41.877Z,17.24
2016-09-03T02:47:41.971Z,17.24
2016-09-03T02:48:41.895Z,17.17
2016-09-03T02:49:41.917Z,17.21
2016-09-03T02:50:41.918Z,17.17
2016-09-03T02:51:41.896Z,17.25
2016-09-03T02:52:41.832Z,17.22
2016-09-03T02:53:41.990Z,17.17
2016-09-03T02:54:41.916Z,17.2
2016-09-03T02:55:42.021Z,17.15
2016-09-03T02:56:41.833Z,17.25
2016-09-03T02:57:41.901Z,17.25
2016-09-03T02:58:41.838Z,17.12
2016-09-03T02:59:41.915Z,17.18
2016-09-03T03:00:41.827Z,17.17
2016-09-03T03:01:41.930Z,17.09
2016-09-03T03:02:41.998Z,17.18
2016-09-03T03:03:41.836Z,17.2
2016-09-03T03:04:41.819Z,17.05
2016-09-03T03:05:41.920Z,17.12
2016-09-03T03:06:41.867Z,17.02
2016-09-03T03:07:41.912Z,17.07
2016-09-03T03:08:41.845Z,17.03
2016-09-03T03:09:41.927Z,17
2016-09-03T03:10:41.930Z,16.94
2016-09-03T03:11:41.844Z,16.91
2016-09-03T03:12:41.931Z,16.92
2016-09-03T03:13:41.857Z,16.88
2016-09-03T03:14:41.840Z,16.91
2016-09-03T03:15:41.840Z,16.9
2016-09-03T03:16:42.013Z,16.73
2016-09-03T03:17:41.856Z,16.8
2016-09-03T03:18:41.930Z,16.76
2016-09-03T03:19:41.858Z,16.69
2016-09-03T03:20:41.928Z,16.73
2016-09-03T03:21:41.935Z,16.73
2016-09-03T03:22:41.934Z,16.73
2016-09-03T03:23:41.865Z,16.65
2016-09-03T03:24:41.956Z,16.62
2016-09-03T03:25:42.002Z,16.7
2016-09-03T03:26:41.987Z,16.65
2016-09-03T03:27:41.999Z,16.63
2016-09-03T03:28:41.944Z,16.63
2016-09-03T03:29:41.949Z,16.54
2016-09-03T03:30:41.871Z,16.55
2016-09-03T03:31:41.979Z,16.49
2016-09-03T03:32:42.164Z,16.58
2016-09-03T03:33:42.056Z,16.52
2016-09-03T03:34:42.037Z,16.51
2016-09-03T03:35:42.026Z,16.52
2016-09-03T03:36:42.038Z,16.57
2016-09-03T03:37:42.025Z,16.4
2016-09-03T03:38:41.958Z,16.55
2016-09-03T03:39:41.920Z,16.37
2016-09-03T03:40:41.984Z,16.42
2016-09-03T03:41:41.965Z,16.48
2016-09-03T03:42:41.959Z,16.47
2016-09-03T03:43:42.055Z,16.39
2016-09-03T03:44:41.905Z,16.39
2016-09-03T03:45:41.970Z,16.34
2016-09-03T03:46:41.966Z,16.36
2016-09-03T03:47:41.974Z,16.37
2016-09-03T03:48:41.898Z,16.39
2016-09-03T03:49:42.060Z,16.42
2016-09-03T03:50:42.064Z,16.4
2016-09-03T03:51:41.925Z,16.4
2016-09-03T03:52:41.984Z,16.45
2016-09-03T03:53:41.911Z,16.37
2016-09-03T03:54:41.978Z,16.42
2016-09-03T03:55:42.081Z,16.42
2016-09-03T03:56:42.071Z,16.42
2016-09-03T03:57:41.931Z,16.36
2016-09-03T03:58:42.080Z,15.96
2016-09-03T03:59:41.937Z,16.37
2016-09-03T04:00:42.049Z,16.36
2016-09-03T04:01:42.027Z,16.33
2016-09-03T04:02:41.906Z,16.33
2016-09-03T04:03:42.090Z,16.32
2016-09-03T04:04:42.076Z,16.26
2016-09-03T04:05:42.000Z,16.36
2016-09-03T04:06:42.009Z,16.3
2016-09-03T04:07:42.012Z,16.22
2016-09-03T04:08:41.928Z,16.21
2016-09-03T04:09:41.941Z,16.26
2016-09-03T04:10:41.938Z,16.25
2016-09-03T04:11:42.019Z,16.22
2016-09-03T04:12:42.081Z,16.13
2016-09-03T04:13:42.008Z,16.27
2016-09-03T04:14:42.013Z,16.22
2016-09-03T04:15:42.021Z,16.1
2016-09-03T04:16:42.020Z,16.1
2016-09-03T04:17:41.937Z,16.06
2016-09-03T04:18:42.010Z,16.21
2016-09-03T04:19:41.946Z,16.17
2016-09-03T04:20:42.016Z,16.08
2016-09-03T04:21:44.485Z,16.17
2016-09-03T04:22:41.964Z,16.26
2016-09-03T04:23:42.136Z,16.1
2016-09-03T04:24:41.951Z,16.16
2016-09-03T04:25:42.111Z,16.16
2016-09-03T04:26:42.049Z,16.21
2016-09-03T04:27:42.040Z,16.21
2016-09-03T04:28:41.950Z,16.21
2016-09-03T04:29:42.068Z,16.26
2016-09-03T04:30:42.045Z,16.1
2016-09-03T04:31:42.112Z,16.14
2016-09-03T04:32:42.185Z,16.34
2016-09-03T04:33:42.048Z,16.22
2016-09-03T04:34:42.039Z,16.27
2016-09-03T04:35:41.969Z,16.25
2016-09-03T04:36:41.976Z,16.26
2016-09-03T04:37:41.972Z,16.26
2016-09-03T04:38:41.968Z,16.22
2016-09-03T04:39:41.977Z,16.25
2016-09-03T04:40:42.054Z,16.33
2016-09-03T04:41:42.051Z,16.25
2016-09-03T04:42:42.153Z,16.25
2016-09-03T04:43:42.047Z,16.21
2016-09-03T04:44:42.048Z,16.13
2016-09-03T04:45:42.036Z,16.26
2016-09-03T04:46:41.973Z,16.27
2016-09-03T04:47:42.074Z,16.13
2016-09-03T04:48:42.065Z,16.1
2016-09-03T04:49:41.985Z,16.13
2016-09-03T04:50:42.058Z,16.1
2016-09-03T04:51:42.066Z,16.25
2016-09-03T04:52:42.062Z,16.21
2016-09-03T04:53:42.105Z,16.1
2016-09-03T04:54:41.981Z,16.22
2016-09-03T04:55:42.086Z,16.11
2016-09-03T04:56:42.076Z,16.07
2016-09-03T04:57:42.083Z,16.1
2016-09-03T04:58:42.000Z,16.16
2016-09-03T04:59:42.088Z,16.18
2016-09-03T05:00:42.005Z,16.17
2016-09-03T05:01:42.162Z,16.08
2016-09-03T05:02:42.097Z,16
2016-09-03T05:03:42.081Z,16.02
2016-09-03T05:04:42.083Z,16
2016-09-03T05:05:42.156Z,16
2016-09-03T05:06:42.097Z,15.98
2016-09-03T05:07:42.738Z,15.99
2016-09-03T05:08:42.019Z,15.96
2016-09-03T05:09:42.098Z,15.95
2016-09-03T05:10:42.009Z,15.98
2016-09-03T05:11:42.078Z,15.93
2016-09-03T05:12:42.161Z,15.95
2016-09-03T05:13:42.173Z,15.98
2016-09-03T05:14:42.074Z,15.84
2016-09-03T05:15:42.095Z,15.95
2016-09-03T05:16:42.173Z,15.91
2016-09-03T05:17:42.089Z,15.92
2016-09-03T05:18:42.101Z,15.93
2016-09-03T05:19:42.032Z,15.92
2016-09-03T05:20:42.109Z,15.86
2016-09-03T05:21:42.092Z,15.92
2016-09-03T05:22:42.179Z,15.89
2016-09-03T05:23:42.021Z,15.98
2016-09-03T05:24:42.112Z,15.92
2016-09-03T05:25:42.106Z,15.96
2016-09-03T05:26:42.114Z,15.92
2016-09-03T05:27:42.106Z,15.96
2016-09-03T05:28:42.122Z,16.06
2016-09-03T05:29:42.032Z,15.96
2016-09-03T05:30:42.202Z,16.02
2016-09-03T05:31:42.117Z,15.98
2016-09-03T05:32:42.126Z,15.96
2016-09-03T05:33:42.130Z,16.04
2016-09-03T05:34:42.203Z,16
2016-09-03T05:35:42.113Z,15.99
2016-09-03T05:36:42.202Z,15.98
2016-09-03T05:37:42.210Z,15.93
2016-09-03T05:38:42.149Z,15.91
2016-09-03T05:39:42.133Z,15.96
2016-09-03T05:40:42.212Z,15.92
2016-09-03T05:41:42.042Z,15.96
2016-09-03T05:42:42.049Z,16.07
2016-09-03T05:43:42.142Z,16.08
2016-09-03T05:44:42.209Z,16.1
2016-09-03T05:45:42.052Z,16.08
2016-09-03T05:46:42.140Z,16.17
2016-09-03T05:47:42.847Z,16.08
2016-09-03T05:48:42.137Z,16.14
2016-09-03T05:49:42.142Z,16.08
2016-09-03T05:50:42.060Z,16.17
2016-09-03T05:51:42.132Z,16.04
2016-09-03T05:52:42.163Z,16.17
2016-09-03T05:53:42.345Z,16.08
2016-09-03T05:54:42.241Z,16.1
2016-09-03T05:55:42.229Z,16.17
2016-09-03T05:56:42.159Z,16.22
2016-09-03T05:57:42.159Z,16.22
2016-09-03T05:58:42.147Z,16.22
2016-09-03T05:59:42.236Z,16.36
2016-09-03T06:00:42.155Z,16.36
2016-09-03T06:01:42.166Z,16.45
2016-09-03T06:02:42.142Z,16.45
2016-09-03T06:03:42.157Z,16.42
2016-09-03T06:04:42.175Z,16.52
2016-09-03T06:05:42.233Z,16.57
2016-09-03T06:06:42.075Z,16.42
2016-09-03T06:07:42.164Z,16.52
2016-09-03T06:08:42.153Z,16.57
2016-09-03T06:09:42.088Z,16.58
2016-09-03T06:10:42.150Z,16.52
2016-09-03T06:11:42.172Z,16.69
2016-09-03T06:12:42.165Z,16.51
2016-09-03T06:13:42.177Z,16.49
2016-09-03T06:14:42.168Z,16.58
2016-09-03T06:15:42.188Z,16.57
2016-09-03T06:16:42.084Z,16.66
2016-09-03T06:17:42.171Z,16.73
2016-09-03T06:18:42.172Z,16.54
2016-09-03T06:19:42.170Z,16.55
2016-09-03T06:20:42.181Z,16.59
2016-09-03T06:21:42.303Z,16.55
2016-09-03T06:22:42.242Z,16.65
2016-09-03T06:23:42.256Z,16.55
2016-09-03T06:24:42.174Z,16.65
2016-09-03T06:25:42.263Z,16.54
2016-09-03T06:26:42.102Z,16.59
2016-09-03T06:27:42.100Z,16.65
2016-09-03T06:28:42.255Z,16.65
2016-09-03T06:29:42.181Z,16.72
2016-09-03T06:30:42.274Z,16.73
2016-09-03T06:31:42.174Z,16.59
2016-09-03T06:32:42.204Z,16.72
2016-09-03T06:33:42.119Z,16.67
2016-09-03T06:34:42.269Z,16.84
2016-09-03T06:35:42.106Z,16.72
2016-09-03T06:36:42.162Z,16.8
2016-09-03T06:37:42.278Z,16.74
2016-09-03T06:38:42.205Z,16.7
2016-09-03T06:39:42.120Z,16.7
2016-09-03T06:40:42.275Z,16.76
2016-09-03T06:41:42.200Z,16.72
2016-09-03T06:42:42.205Z,16.8
2016-09-03T06:43:42.134Z,16.74
2016-09-03T06:44:42.204Z,16.82
2016-09-03T06:45:42.278Z,16.9
2016-09-03T06:46:42.219Z,16.9
2016-09-03T06:47:42.214Z,16.91
2016-09-03T06:48:42.134Z,16.99
2016-09-03T06:49:42.216Z,16.99
2016-09-03T06:50:42.295Z,16.95
2016-09-03T06:51:42.308Z,16.92
2016-09-03T06:52:42.217Z,17.05
2016-09-03T06:53:42.144Z,17.06
2016-09-03T06:54:42.153Z,17.06
2016-09-03T06:55:42.286Z,17.03
2016-09-03T06:56:42.230Z,17.09
2016-09-03T06:57:42.293Z,17.06
2016-09-03T06:58:42.151Z,17.07
2016-09-03T06:59:44.755Z,17.13
2016-09-03T07:00:42.232Z,17.17
2016-09-03T07:01:42.236Z,17.21
2016-09-03T07:02:42.223Z,17.22
2016-09-03T07:03:42.302Z,17.18
2016-09-03T07:04:42.240Z,17.24
2016-09-03T07:05:42.282Z,17.24
2016-09-03T07:06:42.228Z,17.27
2016-09-03T07:07:42.229Z,17.27
2016-09-03T07:08:42.312Z,17.35
2016-09-03T07:09:42.153Z,17.39
2016-09-03T07:10:42.176Z,17.32
2016-09-03T07:11:42.247Z,17.3
2016-09-03T07:12:42.171Z,17.31
2016-09-03T07:13:42.247Z,17.52
2016-09-03T07:14:42.180Z,17.47
2016-09-03T07:15:42.280Z,17.54
2016-09-03T07:16:42.264Z,17.58
2016-09-03T07:17:42.181Z,17.52
2016-09-03T07:18:42.245Z,17.58
2016-09-03T07:19:42.177Z,17.65
2016-09-03T07:20:42.335Z,17.79
2016-09-03T07:21:42.253Z,17.83
2016-09-03T07:22:42.274Z,18.02
2016-09-03T07:23:42.291Z,18.05
2016-09-03T07:24:42.258Z,18.05
2016-09-03T07:25:42.270Z,18.01
2016-09-03T07:26:42.178Z,18.02
2016-09-03T07:27:42.195Z,17.94
2016-09-03T07:28:42.272Z,18.06
2016-09-03T07:29:42.184Z,18.08
2016-09-03T07:30:42.293Z,18.05
2016-09-03T07:31:42.360Z,18.19
2016-09-03T07:32:42.193Z,18.26
2016-09-03T07:33:42.211Z,18.36
2016-09-03T07:34:42.375Z,18.49
2016-09-03T07:35:42.276Z,18.56
2016-09-03T07:36:42.372Z,18.57
2016-09-03T07:37:42.290Z,18.47
2016-09-03T07:38:42.365Z,18.54
2016-09-03T07:39:42.378Z,18.38
2016-09-03T07:40:42.297Z,18.34
2016-09-03T07:41:42.363Z,18.31
2016-09-03T07:42:42.294Z,18.57
2016-09-03T07:43:42.377Z,18.47
2016-09-03T07:44:42.294Z,18.47
2016-09-03T07:45:42.221Z,18.42
2016-09-03T07:46:42.460Z,18.53
2016-09-03T07:47:42.229Z,18.56
2016-09-03T07:48:42.307Z,18.59
2016-09-03T07:49:42.293Z,18.68
2016-09-03T07:50:42.294Z,18.81
2016-09-03T07:51:42.297Z,18.84
2016-09-03T07:52:42.305Z,18.86
2016-09-03T07:53:42.224Z,18.79
2016-09-03T07:54:42.405Z,18.71
2016-09-03T07:55:42.235Z,18.81
2016-09-03T07:56:42.257Z,18.86
2016-09-03T07:57:42.239Z,18.99
2016-09-03T07:58:42.401Z,18.94
2016-09-03T07:59:42.316Z,18.82
2016-09-03T08:00:42.427Z,18.96
2016-09-03T08:01:42.383Z,19.19
2016-09-03T08:02:42.315Z,19.19
2016-09-03T08:03:42.413Z,19.1
2016-09-03T08:04:42.406Z,19.1
2016-09-03T08:05:42.258Z,19.27
2016-09-03T08:06:42.320Z,19.24
2016-09-03T08:07:42.344Z,18.94
2016-09-03T08:08:42.361Z,18.97
2016-09-03T08:09:42.340Z,19
2016-09-03T08:10:42.362Z,18.99
2016-09-03T08:11:42.253Z,19.27
2016-09-03T08:12:42.343Z,19.45
2016-09-03T08:13:42.334Z,19.3
2016-09-03T08:14:42.267Z,19.27
2016-09-03T08:15:42.356Z,19.52
2016-09-03T08:16:42.333Z,19.43
2016-09-03T08:17:42.366Z,19.46
2016-09-03T08:18:42.409Z,19.32
2016-09-03T08:19:42.444Z,19.15
2016-09-03T08:20:42.351Z,19.15
2016-09-03T08:21:42.425Z,19.07
2016-09-03T08:22:42.284Z,18.99
2016-09-03T08:23:42.435Z,18.94
2016-09-03T08:24:42.277Z,18.9
2016-09-03T08:25:42.434Z,19.07
2016-09-03T08:26:42.354Z,19.27
2016-09-03T08:27:42.314Z,19.4
2016-09-03T08:28:42.294Z,19.35
2016-09-03T08:29:42.358Z,19.35
2016-09-03T08:30:42.434Z,19.28
2016-09-03T08:31:42.449Z,19.45
2016-09-03T08:32:42.459Z,19.27
2016-09-03T08:33:42.278Z,19.25
2016-09-03T08:34:42.298Z,19.38
2016-09-03T08:35:42.938Z,19.45
2016-09-03T08:36:42.446Z,19.34
2016-09-03T08:37:42.455Z,19.23
2016-09-03T08:38:42.379Z,19.1
2016-09-03T08:39:42.466Z,18.9
2016-09-03T08:40:42.310Z,19.4
2016-09-03T08:41:42.456Z,18.96
2016-09-03T08:42:42.527Z,18.89
2016-09-03T08:43:42.364Z,18.9
2016-09-03T08:44:42.478Z,18.9
2016-09-03T08:45:42.470Z,19.02
2016-09-03T08:46:42.308Z,18.79
2016-09-03T08:47:42.313Z,18.84
2016-09-03T08:48:42.480Z,18.75
2016-09-03T08:49:42.396Z,18.66
2016-09-03T08:50:42.457Z,18.74
2016-09-03T08:51:43.105Z,18.9
2016-09-03T08:52:42.495Z,18.87
2016-09-03T08:53:42.338Z,18.72
2016-09-03T08:54:42.510Z,18.71
2016-09-03T08:55:42.389Z,18.59
2016-09-03T08:56:42.410Z,18.5
2016-09-03T08:57:42.336Z,18.47
2016-09-03T08:58:42.332Z,18.29
2016-09-03T08:59:42.421Z,18.21
2016-09-03T09:00:42.389Z,18.24
2016-09-03T09:01:42.484Z,18.14
2016-09-03T09:02:42.408Z,18.17
2016-09-03T09:03:42.404Z,18.27
2016-09-03T09:04:42.413Z,18.26
2016-09-03T09:05:42.418Z,18.31
2016-09-03T09:06:42.401Z,18.14
2016-09-03T09:07:42.419Z,18.26
2016-09-03T09:08:42.326Z,18.27
2016-09-03T09:09:42.344Z,18.39
2016-09-03T09:10:42.490Z,18.34
2016-09-03T09:11:42.350Z,18.31
2016-09-03T09:12:42.429Z,18.44
2016-09-03T09:13:42.351Z,18.44
2016-09-03T09:14:42.442Z,18.29
2016-09-03T09:15:42.349Z,18.27
2016-09-03T09:16:42.427Z,18.35
2016-09-03T09:17:42.447Z,18.49
2016-09-03T09:18:42.502Z,18.56
2016-09-03T09:19:42.429Z,18.6
2016-09-03T09:20:42.504Z,18.59
2016-09-03T09:21:42.369Z,18.41
2016-09-03T09:22:42.422Z,18.44
2016-09-03T09:23:42.445Z,18.39
2016-09-03T09:24:42.510Z,18.53
2016-09-03T09:25:42.439Z,18.54
2016-09-03T09:26:42.439Z,18.34
2016-09-03T09:27:42.515Z,18.13
2016-09-03T09:28:42.358Z,18.27
2016-09-03T09:29:42.436Z,18.31
2016-09-03T09:30:42.377Z,18.24
2016-09-03T09:31:42.526Z,18.21
2016-09-03T09:32:42.442Z,18.34
2016-09-03T09:33:42.447Z,18.35
2016-09-03T09:34:42.530Z,18.31
2016-09-03T09:35:42.457Z,18.34
2016-09-03T09:36:42.466Z,18.29
2016-09-03T09:37:42.372Z,18.29
2016-09-03T09:38:42.473Z,18.29
2016-09-03T09:39:42.484Z,18.35
2016-09-03T09:40:42.451Z,18.39
2016-09-03T09:41:42.568Z,18.32
2016-09-03T09:42:42.522Z,18.34
2016-09-03T09:43:42.468Z,18.41
2016-09-03T09:44:42.473Z,18.26
2016-09-03T09:45:42.464Z,18.31
2016-09-03T09:46:42.386Z,18.26
2016-09-03T09:47:42.407Z,18.14
2016-09-03T09:48:42.412Z,18.23
2016-09-03T09:49:42.510Z,18.32
2016-09-03T09:50:42.482Z,18.32
2016-09-03T09:51:42.540Z,18.32
2016-09-03T09:52:42.398Z,18.1
2016-09-03T09:53:42.498Z,18.06
2016-09-03T09:54:42.495Z,18.21
2016-09-03T09:55:42.420Z,18.2
2016-09-03T09:56:42.542Z,18.11
2016-09-03T09:57:42.500Z,18.26
2016-09-03T09:58:42.476Z,18.06
2016-09-03T09:59:42.560Z,18.05
2016-09-03T10:00:42.556Z,18.06
2016-09-03T10:01:42.553Z,17.99
2016-09-03T10:02:42.406Z,17.92
2016-09-03T10:03:42.503Z,17.79
2016-09-03T10:04:42.403Z,17.84
2016-09-03T10:05:42.484Z,17.74
2016-09-03T10:06:42.496Z,17.79
2016-09-03T10:07:42.502Z,17.79
2016-09-03T10:08:42.409Z,17.73
2016-09-03T10:09:42.574Z,17.9
2016-09-03T10:10:42.499Z,18.02
2016-09-03T10:11:42.591Z,18.14
2016-09-03T10:12:42.517Z,18.21
2016-09-03T10:13:42.502Z,18.29
2016-09-03T10:14:42.584Z,18.27
2016-09-03T10:15:42.498Z,18.23
2016-09-03T10:16:42.501Z,18.31
2016-09-03T10:17:42.535Z,18.27
2016-09-03T10:18:42.505Z,18.41
2016-09-03T10:19:42.585Z,18.34
2016-09-03T10:20:42.592Z,18.42
2016-09-03T10:21:42.436Z,18.59
2016-09-03T10:22:42.505Z,18.69
2016-09-03T10:23:42.527Z,19.19
2016-09-03T10:24:42.528Z,19.46
2016-09-03T10:25:42.521Z,19.65
2016-09-03T10:26:42.526Z,19.64
2016-09-03T10:27:42.598Z,19.63
2016-09-03T10:28:42.515Z,19.71
2016-09-03T10:29:42.525Z,19.93
2016-09-03T10:30:42.631Z,20.08
2016-09-03T10:31:42.525Z,20.29
2016-09-03T10:32:42.543Z,20.29
2016-09-03T10:33:42.525Z,20.25
2016-09-03T10:34:42.610Z,20.12
2016-09-03T10:35:42.474Z,19.92
2016-09-03T10:36:42.531Z,20.01
2016-09-03T10:37:42.464Z,19.85
2016-09-03T10:38:42.477Z,19.9
2016-09-03T10:39:42.545Z,19.52
2016-09-03T10:40:42.556Z,19.82
2016-09-03T10:41:42.482Z,19.78
2016-09-03T10:42:42.495Z,19.93
2016-09-03T10:43:42.497Z,19.75
2016-09-03T10:44:42.549Z,19.6
2016-09-03T10:45:42.545Z,19.92
2016-09-03T10:46:42.506Z,20.23
2016-09-03T10:47:42.578Z,20.4
2016-09-03T10:48:42.560Z,20.63
2016-09-03T10:49:42.570Z,20.9
2016-09-03T10:50:42.562Z,20.57
2016-09-03T10:51:42.493Z,20.41
2016-09-03T10:52:42.492Z,20.56
2016-09-03T10:53:42.559Z,20.26
2016-09-03T10:54:42.593Z,20.37
2016-09-03T10:55:42.666Z,20.02
2016-09-03T10:56:42.491Z,20.15
2016-09-03T10:57:42.652Z,20.6
2016-09-03T10:58:42.578Z,20.48
2016-09-03T10:59:42.520Z,20.75
2016-09-03T11:00:42.645Z,20.75
2016-09-03T11:01:42.573Z,20.68
2016-09-03T11:02:42.593Z,20.81
2016-09-03T11:03:42.505Z,21.06
2016-09-03T11:04:42.587Z,20.98
2016-09-03T11:05:42.600Z,20.9
2016-09-03T11:06:42.584Z,21.12
2016-09-03T11:07:42.592Z,21.3
2016-09-03T11:08:42.685Z,21.21
2016-09-03T11:09:42.586Z,21.28
2016-09-03T11:10:42.586Z,20.68
2016-09-03T11:11:42.712Z,20.81
2016-09-03T11:12:42.586Z,20.82
2016-09-03T11:13:42.516Z,20.9
2016-09-03T11:14:42.616Z,21.13
2016-09-03T11:15:42.682Z,21.22
2016-09-03T11:16:42.624Z,21.28
2016-09-03T11:17:42.628Z,21.68
2016-09-03T11:18:42.537Z,22.14
2016-09-03T11:19:42.803Z,22.29
2016-09-03T11:20:42.618Z,22.48
2016-09-03T11:21:42.549Z,22.75
2016-09-03T11:22:42.568Z,22.41
2016-09-03T11:23:43.330Z,22.02
2016-09-03T11:24:42.573Z,21.94
2016-09-03T11:25:42.634Z,22.16
2016-09-03T11:26:42.676Z,22.34
2016-09-03T11:27:42.713Z,22.81
2016-09-03T11:28:42.623Z,22.82
2016-09-03T11:29:42.561Z,23.01
2016-09-03T11:30:42.749Z,22.67
2016-09-03T11:31:42.773Z,22.48
2016-09-03T11:32:42.616Z,21.93
2016-09-03T11:33:42.723Z,22.07
2016-09-03T11:34:42.554Z,21.94
2016-09-03T11:35:42.694Z,22.18
2016-09-03T11:36:42.626Z,22.76
2016-09-03T11:37:42.674Z,23
2016-09-03T11:38:42.655Z,23.15
2016-09-03T11:39:43.278Z,23.5
2016-09-03T11:40:42.552Z,23.75
2016-09-03T11:41:42.722Z,23.77
2016-09-03T11:42:42.569Z,23.32
2016-09-03T11:43:43.639Z,22.86
2016-09-03T11:44:42.653Z,23.01
2016-09-03T11:45:42.674Z,22.92
2016-09-03T11:46:42.783Z,22.84
2016-09-03T11:47:42.734Z,22.55
2016-09-03T11:48:42.646Z,22.69
2016-09-03T11:49:42.662Z,22.88
2016-09-03T11:50:42.728Z,22.79
2016-09-03T11:51:42.649Z,22.24
2016-09-03T11:52:42.684Z,21.51
2016-09-03T11:53:42.572Z,21.58
2016-09-03T11:54:42.664Z,21.8
2016-09-03T11:55:42.603Z,22.02
2016-09-03T11:56:42.585Z,22.14
2016-09-03T11:57:42.758Z,22.14
2016-09-03T11:58:42.734Z,21.78
2016-09-03T11:59:42.687Z,21.59
2016-09-03T12:00:42.591Z,21.55
2016-09-03T12:01:42.668Z,21.28
2016-09-03T12:02:42.598Z,21.38
2016-09-03T12:03:42.693Z,21.99
2016-09-03T12:04:42.743Z,22.6
2016-09-03T12:05:42.753Z,23.14
2016-09-03T12:06:42.747Z,23.7
2016-09-03T12:07:42.682Z,24.27
2016-09-03T12:08:42.684Z,24.32
2016-09-03T12:09:42.680Z,24.52
2016-09-03T12:10:42.687Z,24.09
2016-09-03T12:11:43.399Z,23.45
2016-09-03T12:12:42.631Z,23.29
2016-09-03T12:13:42.611Z,23.21
2016-09-03T12:14:42.686Z,22.67
2016-09-03T12:15:42.753Z,22.33
2016-09-03T12:16:42.616Z,22.23
2016-09-03T12:17:42.619Z,22.16
2016-09-03T12:18:42.653Z,22.45
2016-09-03T12:19:42.732Z,22.52
2016-09-03T12:20:42.715Z,22.69
2016-09-03T12:21:42.701Z,22.94
2016-09-03T12:22:42.723Z,23.14
2016-09-03T12:23:42.785Z,23.45
2016-09-03T12:24:42.787Z,23.62
2016-09-03T12:25:42.713Z,23.79
2016-09-03T12:26:42.784Z,23.97
2016-09-03T12:27:42.646Z,23.34
2016-09-03T12:28:42.722Z,23.29
2016-09-03T12:29:42.721Z,23.66
2016-09-03T12:30:42.715Z,23.82
2016-09-03T12:31:42.753Z,23.66
2016-09-03T12:32:42.713Z,23.25
2016-09-03T12:33:43.376Z,23.22
2016-09-03T12:34:42.727Z,23.06
2016-09-03T12:35:42.658Z,23.19
2016-09-03T12:36:42.649Z,23.15
2016-09-03T12:37:42.733Z,23.32
2016-09-03T12:38:42.733Z,23.25
2016-09-03T12:39:42.724Z,23.19
2016-09-03T12:40:42.725Z,23.21
2016-09-03T12:41:42.756Z,23.26
2016-09-03T12:42:42.854Z,23.15
2016-09-03T12:43:42.830Z,22.86
2016-09-03T12:44:42.738Z,22.75
2016-09-03T12:45:42.671Z,22.88
2016-09-03T12:46:42.656Z,23.22
2016-09-03T12:47:42.671Z,22.88
2016-09-03T12:48:42.733Z,23.16
2016-09-03T12:49:42.751Z,23.37
2016-09-03T12:50:42.747Z,23.15
2016-09-03T12:51:43.296Z,23.44
2016-09-03T12:52:42.842Z,23.67
2016-09-03T12:53:42.821Z,23.97
2016-09-03T12:54:42.679Z,24.34
2016-09-03T12:55:42.863Z,24.64